sensor_id;sensor_type;location;lat;lon;timestamp;pressure;altitude;pressure_sealevel;temperature;humidity
67397;BME280;57728;50.448;18.824;2022-11-03T00:00:20;98616.34;;;8.93;71.56
67397;BME280;57728;50.448;18.824;2022-11-03T00:02:22;98612.28;;;8.90;71.44
67397;BME280;57728;50.448;18.824;2022-11-03T00:04:23;98612.28;;;8.90;71.21
67397;BME280;57728;50.448;18.824;2022-11-03T00:06:24;98610.66;;;8.89;71.50
67397;BME280;57728;50.448;18.824;2022-11-03T00:08:26;98617.91;;;8.88;71.44
67397;BME280;57728;50.448;18.824;2022-11-03T00:10:27;98613.84;;;8.86;71.66
67397;BME280;57728;50.448;18.824;2022-11-03T00:12:28;98598.63;;;8.70;71.59
67397;BME280;57728;50.448;18.824;2022-11-03T00:14:30;98626.94;;;8.77;72.05
67397;BME280;57728;50.448;18.824;2022-11-03T00:16:32;98622.31;;;8.73;72.01
67397;BME280;57728;50.448;18.824;2022-11-03T00:18:33;98625.75;;;8.68;72.56
67397;BME280;57728;50.448;18.824;2022-11-03T00:20:35;98627.56;;;8.62;72.74
67397;BME280;57728;50.448;18.824;2022-11-03T00:22:36;98617.34;;;8.59;72.77
67397;BME280;57728;50.448;18.824;2022-11-03T00:24:37;98631.50;;;8.55;72.88
67397;BME280;57728;50.448;18.824;2022-11-03T00:26:40;98628.53;;;8.51;72.83
67397;BME280;57728;50.448;18.824;2022-11-03T00:28:44;98629.25;;;8.47;72.97
67397;BME280;57728;50.448;18.824;2022-11-03T00:30:46;98631.91;;;8.42;73.44
67397;BME280;57728;50.448;18.824;2022-11-03T00:32:48;98626.78;;;8.40;73.77
67397;BME280;57728;50.448;18.824;2022-11-03T00:34:49;98633.97;;;8.34;73.76
67397;BME280;57728;50.448;18.824;2022-11-03T00:36:50;98633.16;;;8.34;73.58
67397;BME280;57728;50.448;18.824;2022-11-03T00:38:52;98635.03;;;8.33;74.11
67397;BME280;57728;50.448;18.824;2022-11-03T00:40:55;98637.97;;;8.32;73.94
67397;BME280;57728;50.448;18.824;2022-11-03T00:42:57;98640.09;;;8.30;74.39
67397;BME280;57728;50.448;18.824;2022-11-03T00:44:59;98645.94;;;8.27;74.26
67397;BME280;57728;50.448;18.824;2022-11-03T00:47:00;98635.72;;;8.24;74.33
67397;BME280;57728;50.448;18.824;2022-11-03T00:49:02;98628.97;;;8.21;74.24
67397;BME280;57728;50.448;18.824;2022-11-03T00:53:14;98634.63;;;8.20;74.74
67397;BME280;57728;50.448;18.824;2022-11-03T00:55:15;98637.84;;;8.22;74.42
67397;BME280;57728;50.448;18.824;2022-11-03T00:57:18;98628.97;;;8.21;74.59
67397;BME280;57728;50.448;18.824;2022-11-03T00:59:19;98631.22;;;8.29;74.12
67397;BME280;57728;50.448;18.824;2022-11-03T01:01:23;98626.16;;;8.33;73.86
67397;BME280;57728;50.448;18.824;2022-11-03T01:03:26;98627.56;;;8.35;73.74
67397;BME280;57728;50.448;18.824;2022-11-03T01:05:27;98631.34;;;8.39;73.30
67397;BME280;57728;50.448;18.824;2022-11-03T01:07:47;98636.72;;;8.39;73.10
67397;BME280;57728;50.448;18.824;2022-11-03T01:09:48;98634.59;;;8.42;73.01
67397;BME280;57728;50.448;18.824;2022-11-03T01:12:03;98637.28;;;8.42;73.10
67397;BME280;57728;50.448;18.824;2022-11-03T01:14:09;98631.66;;;8.43;73.28
67397;BME280;57728;50.448;18.824;2022-11-03T01:16:15;98638.09;;;8.42;73.09
67397;BME280;57728;50.448;18.824;2022-11-03T01:18:16;98631.91;;;8.42;72.92
67397;BME280;57728;50.448;18.824;2022-11-03T01:20:18;98633.47;;;8.37;72.74
67397;BME280;57728;50.448;18.824;2022-11-03T01:22:21;98628.59;;;8.34;73.18
67397;BME280;57728;50.448;18.824;2022-11-03T01:24:23;98628.31;;;8.31;73.32
67397;BME280;57728;50.448;18.824;2022-11-03T01:26:24;98630.91;;;8.26;73.55
67397;BME280;57728;50.448;18.824;2022-11-03T01:28:26;98631.66;;;8.21;73.49
67397;BME280;57728;50.448;18.824;2022-11-03T01:30:27;98625.97;;;8.18;73.58
67397;BME280;57728;50.448;18.824;2022-11-03T01:32:28;98627.84;;;8.17;73.19
67397;BME280;57728;50.448;18.824;2022-11-03T01:34:30;98635.09;;;8.17;73.20
67397;BME280;57728;50.448;18.824;2022-11-03T01:36:31;98627.84;;;8.17;73.10
67397;BME280;57728;50.448;18.824;2022-11-03T01:38:36;98626.56;;;8.20;72.88
67397;BME280;57728;50.448;18.824;2022-11-03T01:40:39;98630.06;;;8.20;72.88
67397;BME280;57728;50.448;18.824;2022-11-03T01:42:40;98630.84;;;8.21;72.56
67397;BME280;57728;50.448;18.824;2022-11-03T01:44:46;98622.00;;;8.20;72.46
67397;BME280;57728;50.448;18.824;2022-11-03T01:49:09;98629.47;;;8.18;72.34
67397;BME280;57728;50.448;18.824;2022-11-03T01:51:22;98629.16;;;8.14;72.76
67397;BME280;57728;50.448;18.824;2022-11-03T01:53:27;98628.63;;;8.12;72.83
67397;BME280;57728;50.448;18.824;2022-11-03T01:55:36;98625.63;;;8.09;72.67
67397;BME280;57728;50.448;18.824;2022-11-03T01:57:45;98625.06;;;8.07;72.78
67397;BME280;57728;50.448;18.824;2022-11-03T01:59:50;98626.91;;;8.06;72.86
67397;BME280;57728;50.448;18.824;2022-11-03T02:01:59;98619.38;;;8.03;72.82
67397;BME280;57728;50.448;18.824;2022-11-03T02:04:08;98615.63;;;8.04;72.60
67397;BME280;57728;50.448;18.824;2022-11-03T02:06:15;98612.94;;;8.04;72.77
67397;BME280;57728;50.448;18.824;2022-11-03T02:08:26;98613.75;;;8.05;72.63
67397;BME280;57728;50.448;18.824;2022-11-03T02:10:36;98608.66;;;8.03;72.35
67397;BME280;57728;50.448;18.824;2022-11-03T02:12:39;98612.94;;;8.04;72.64
67397;BME280;57728;50.448;18.824;2022-11-03T02:14:51;98614.25;;;8.02;72.34
67397;BME280;57728;50.448;18.824;2022-11-03T02:17:01;98611.00;;;8.00;72.61
67397;BME280;57728;50.448;18.824;2022-11-03T02:19:26;98608.81;;;7.97;72.60
67397;BME280;57728;50.448;18.824;2022-11-03T02:22:25;98605.88;;;7.98;72.46
67397;BME280;57728;50.448;18.824;2022-11-03T02:26:55;98607.53;;;7.99;72.74
67397;BME280;57728;50.448;18.824;2022-11-03T02:28:57;98601.84;;;7.96;72.61
67397;BME280;57728;50.448;18.824;2022-11-03T02:38:24;98610.13;;;7.94;72.75
67397;BME280;57728;50.448;18.824;2022-11-03T02:40:37;98614.19;;;7.97;72.67
67397;BME280;57728;50.448;18.824;2022-11-03T02:42:47;98612.31;;;7.97;72.57
67397;BME280;57728;50.448;18.824;2022-11-03T02:44:56;98622.81;;;7.99;72.69
67397;BME280;57728;50.448;18.824;2022-11-03T02:47:07;98623.63;;;7.99;72.56
67397;BME280;57728;50.448;18.824;2022-11-03T02:49:11;98618.97;;;7.95;72.79
67397;BME280;57728;50.448;18.824;2022-11-03T02:51:13;98623.22;;;7.90;72.96
67397;BME280;57728;50.448;18.824;2022-11-03T02:53:15;98622.34;;;7.85;73.10
67397;BME280;57728;50.448;18.824;2022-11-03T03:00:06;98610.13;;;7.72;74.08
67397;BME280;57728;50.448;18.824;2022-11-03T03:02:17;98619.44;;;7.70;74.29
67397;BME280;57728;50.448;18.824;2022-11-03T03:04:45;98624.50;;;7.66;74.92
67397;BME280;57728;50.448;18.824;2022-11-03T03:07:00;98622.56;;;7.61;75.08
67397;BME280;57728;50.448;18.824;2022-11-03T03:09:14;98623.88;;;7.59;75.33
67397;BME280;57728;50.448;18.824;2022-11-03T03:11:20;98617.38;;;7.55;75.75
67397;BME280;57728;50.448;18.824;2022-11-03T03:13:36;98622.97;;;7.53;75.74
67397;BME280;57728;50.448;18.824;2022-11-03T03:18:28;98622.31;;;7.46;75.93
67397;BME280;57728;50.448;18.824;2022-11-03T03:21:03;98613.16;;;7.42;76.30
67397;BME280;57728;50.448;18.824;2022-11-03T03:23:18;98618.50;;;7.42;76.59
67397;BME280;57728;50.448;18.824;2022-11-03T03:25:33;98614.53;;;7.45;76.83
67397;BME280;57728;50.448;18.824;2022-11-03T03:27:47;98612.19;;;7.48;77.02
67397;BME280;57728;50.448;18.824;2022-11-03T03:29:56;98602.00;;;7.50;76.87
67397;BME280;57728;50.448;18.824;2022-11-03T03:32:06;98605.53;;;7.51;76.46
67397;BME280;57728;50.448;18.824;2022-11-03T03:34:14;98603.88;;;7.50;76.74
67397;BME280;57728;50.448;18.824;2022-11-03T03:36:22;98606.41;;;7.56;76.38
67397;BME280;57728;50.448;18.824;2022-11-03T03:38:35;98609.34;;;7.55;76.30
67397;BME280;57728;50.448;18.824;2022-11-03T03:40:45;98608.28;;;7.56;76.20
67397;BME280;57728;50.448;18.824;2022-11-03T03:42:51;98613.63;;;7.56;75.88
67397;BME280;57728;50.448;18.824;2022-11-03T03:44:55;98610.97;;;7.56;75.66
67397;BME280;57728;50.448;18.824;2022-11-03T03:47:11;98612.56;;;7.57;75.85
67397;BME280;57728;50.448;18.824;2022-11-03T03:49:20;98608.00;;;7.57;75.55
67397;BME280;57728;50.448;18.824;2022-11-03T03:51:24;98609.09;;;7.56;75.61
67397;BME280;57728;50.448;18.824;2022-11-03T03:53:29;98615.50;;;7.55;75.65
67397;BME280;57728;50.448;18.824;2022-11-03T03:55:36;98607.47;;;7.55;75.77
67397;BME280;57728;50.448;18.824;2022-11-03T03:57:39;98610.38;;;7.54;75.13
67397;BME280;57728;50.448;18.824;2022-11-03T03:59:43;98603.56;;;7.46;75.48
67397;BME280;57728;50.448;18.824;2022-11-03T04:01:44;98609.19;;;7.45;75.27
67397;BME280;57728;50.448;18.824;2022-11-03T04:03:45;98609.13;;;7.39;75.49
67397;BME280;57728;50.448;18.824;2022-11-03T04:05:48;98606.66;;;7.38;75.42
67397;BME280;57728;50.448;18.824;2022-11-03T04:07:49;98620.25;;;7.31;75.06
67397;BME280;57728;50.448;18.824;2022-11-03T04:09:51;98616.91;;;7.24;75.19
67397;BME280;57728;50.448;18.824;2022-11-03T04:11:53;98614.06;;;7.14;75.72
67397;BME280;57728;50.448;18.824;2022-11-03T04:14:12;98607.25;;;7.06;75.94
67397;BME280;57728;50.448;18.824;2022-11-03T04:16:32;98610.91;;;7.00;75.60
67397;BME280;57728;50.448;18.824;2022-11-03T04:18:53;98613.72;;;6.94;75.90
67397;BME280;57728;50.448;18.824;2022-11-03T04:21:13;98611.22;;;6.87;76.27
67397;BME280;57728;50.448;18.824;2022-11-03T04:23:33;98607.59;;;6.81;76.64
67397;BME280;57728;50.448;18.824;2022-11-03T04:25:35;98604.84;;;6.76;76.70
67397;BME280;57728;50.448;18.824;2022-11-03T04:27:36;98610.66;;;6.73;76.60
67397;BME280;57728;50.448;18.824;2022-11-03T04:29:39;98602.56;;;6.68;76.89
67397;BME280;57728;50.448;18.824;2022-11-03T04:31:41;98604.09;;;6.64;77.07
67397;BME280;57728;50.448;18.824;2022-11-03T04:33:43;98595.97;;;6.59;77.30
67397;BME280;57728;50.448;18.824;2022-11-03T04:35:46;98594.81;;;6.55;77.48
67397;BME280;57728;50.448;18.824;2022-11-03T04:38:01;98595.84;;;6.54;77.41
67397;BME280;57728;50.448;18.824;2022-11-03T04:40:14;98589.84;;;6.47;77.81
67397;BME280;57728;50.448;18.824;2022-11-03T04:42:21;98587.91;;;6.42;78.24
67397;BME280;57728;50.448;18.824;2022-11-03T04:44:23;98592.41;;;6.41;77.94
67397;BME280;57728;50.448;18.824;2022-11-03T04:46:28;98586.50;;;6.39;77.96
67397;BME280;57728;50.448;18.824;2022-11-03T04:48:32;98582.44;;;6.37;78.04
67397;BME280;57728;50.448;18.824;2022-11-03T04:50:34;98588.75;;;6.31;78.31
67397;BME280;57728;50.448;18.824;2022-11-03T04:52:36;98581.44;;;6.26;78.42
67397;BME280;57728;50.448;18.824;2022-11-03T04:54:37;98578.44;;;6.23;79.00
67397;BME280;57728;50.448;18.824;2022-11-03T04:56:39;98578.66;;;6.21;79.05
67397;BME280;57728;50.448;18.824;2022-11-03T04:58:41;98575.41;;;6.19;79.46
67397;BME280;57728;50.448;18.824;2022-11-03T05:00:42;98576.22;;;6.20;79.03
67397;BME280;57728;50.448;18.824;2022-11-03T05:02:47;98578.09;;;6.19;78.77
67397;BME280;57728;50.448;18.824;2022-11-03T05:04:50;98569.97;;;6.14;78.99
67397;BME280;57728;50.448;18.824;2022-11-03T05:06:52;98572.66;;;6.14;79.24
67397;BME280;57728;50.448;18.824;2022-11-03T05:08:56;98564.03;;;6.12;79.05
67397;BME280;57728;50.448;18.824;2022-11-03T05:11:00;98570.19;;;6.12;79.58
67397;BME280;57728;50.448;18.824;2022-11-03T05:13:24;98569.41;;;6.12;79.75
67397;BME280;57728;50.448;18.824;2022-11-03T05:15:35;98568.34;;;6.13;79.83
67397;BME280;57728;50.448;18.824;2022-11-03T05:17:40;98567.78;;;6.11;79.96
67397;BME280;57728;50.448;18.824;2022-11-03T05:19:42;98571.81;;;6.13;80.02
67397;BME280;57728;50.448;18.824;2022-11-03T05:21:45;98571.81;;;6.13;80.02
67397;BME280;57728;50.448;18.824;2022-11-03T05:23:55;98567.31;;;6.14;79.69
67397;BME280;57728;50.448;18.824;2022-11-03T05:25:58;98573.69;;;6.13;79.97
67397;BME280;57728;50.448;18.824;2022-11-03T05:28:00;98570.53;;;6.16;79.79
67397;BME280;57728;50.448;18.824;2022-11-03T05:30:03;98576.47;;;6.18;79.89
67397;BME280;57728;50.448;18.824;2022-11-03T05:32:27;98570.28;;;6.17;80.02
67397;BME280;57728;50.448;18.824;2022-11-03T05:34:45;98568.66;;;6.16;79.94
67397;BME280;57728;50.448;18.824;2022-11-03T05:36:47;98569.47;;;6.17;79.47
67397;BME280;57728;50.448;18.824;2022-11-03T05:38:49;98565.91;;;6.11;79.73
67397;BME280;57728;50.448;18.824;2022-11-03T05:40:54;98571.34;;;6.16;79.60
67397;BME280;57728;50.448;18.824;2022-11-03T05:42:58;98574.03;;;6.16;79.58
67397;BME280;57728;50.448;18.824;2022-11-03T05:45:15;98579.38;;;6.16;79.39
67397;BME280;57728;50.448;18.824;2022-11-03T05:47:37;98574.03;;;6.16;79.42
67397;BME280;57728;50.448;18.824;2022-11-03T05:49:39;98577.75;;;6.15;79.22
67397;BME280;57728;50.448;18.824;2022-11-03T05:51:43;98570.78;;;6.14;79.33
67397;BME280;57728;50.448;18.824;2022-11-03T05:53:50;98572.88;;;6.12;79.11
67397;BME280;57728;50.448;18.824;2022-11-03T05:55:57;98573.13;;;6.11;79.14
67397;BME280;57728;50.448;18.824;2022-11-03T05:58:15;98576.38;;;6.13;79.21
67397;BME280;57728;50.448;18.824;2022-11-03T06:00:41;98572.31;;;6.10;79.08
67397;BME280;57728;50.448;18.824;2022-11-03T06:02:45;98577.66;;;6.10;78.97
67397;BME280;57728;50.448;18.824;2022-11-03T06:04:49;98574.41;;;6.08;79.15
67397;BME280;57728;50.448;18.824;2022-11-03T06:06:51;98573.03;;;6.06;78.75
67397;BME280;57728;50.448;18.824;2022-11-03T06:08:56;98575.94;;;6.04;79.12
67397;BME280;57728;50.448;18.824;2022-11-03T06:11:02;98575.38;;;6.02;79.14
67397;BME280;57728;50.448;18.824;2022-11-03T06:13:12;98574.31;;;6.03;79.30
67397;BME280;57728;50.448;18.824;2022-11-03T06:17:30;98566.84;;;6.05;79.74
67397;BME280;57728;50.448;18.824;2022-11-03T06:19:40;98574.66;;;6.07;79.54
67397;BME280;57728;50.448;18.824;2022-11-03T06:21:45;98578.47;;;6.11;79.49
67397;BME280;57728;50.448;18.824;2022-11-03T06:23:47;98574.28;;;6.15;79.48
67397;BME280;57728;50.448;18.824;2022-11-03T06:25:53;98569.25;;;6.19;79.26
67397;BME280;57728;50.448;18.824;2022-11-03T06:30:39;98561.06;;;6.25;78.94
67397;BME280;57728;50.448;18.824;2022-11-03T06:32:43;98577.00;;;6.32;78.92
67397;BME280;57728;50.448;18.824;2022-11-03T06:34:50;98570.84;;;6.31;78.63
67397;BME280;57728;50.448;18.824;2022-11-03T06:36:56;98561.53;;;6.34;78.83
67397;BME280;57728;50.448;18.824;2022-11-03T06:39:03;98562.97;;;6.41;78.37
67397;BME280;57728;50.448;18.824;2022-11-03T06:41:25;98572.16;;;6.46;78.35
67397;BME280;57728;50.448;18.824;2022-11-03T06:43:39;98572.00;;;6.52;78.23
67397;BME280;57728;50.448;18.824;2022-11-03T06:45:48;98569.41;;;6.57;78.11
67397;BME280;57728;50.448;18.824;2022-11-03T06:47:52;98577.88;;;6.66;77.97
67397;BME280;57728;50.448;18.824;2022-11-03T06:49:58;98564.59;;;6.71;77.84
67397;BME280;57728;50.448;18.824;2022-11-03T06:54:28;98568.38;;;6.87;77.66
67397;BME280;57728;50.448;18.824;2022-11-03T06:56:34;98578.69;;;6.95;77.32
67397;BME280;57728;50.448;18.824;2022-11-03T06:58:39;98566.97;;;7.01;76.72
67397;BME280;57728;50.448;18.824;2022-11-03T07:00:43;98566.56;;;7.09;76.93
67397;BME280;57728;50.448;18.824;2022-11-03T07:03:06;98564.28;;;7.18;76.90
67397;BME280;57728;50.448;18.824;2022-11-03T07:05:28;98563.88;;;7.26;76.11
67397;BME280;57728;50.448;18.824;2022-11-03T07:07:30;98570.13;;;7.32;75.81
67397;BME280;57728;50.448;18.824;2022-11-03T07:09:32;98564.28;;;7.35;75.58
67397;BME280;57728;50.448;18.824;2022-11-03T07:13:50;98570.50;;;7.40;75.32
67397;BME280;57728;50.448;18.824;2022-11-03T07:15:53;98554.44;;;7.40;75.32
67397;BME280;57728;50.448;18.824;2022-11-03T07:17:56;98551.50;;;7.42;75.43
67397;BME280;57728;50.448;18.824;2022-11-03T07:19:58;98554.81;;;7.49;75.17
67397;BME280;57728;50.448;18.824;2022-11-03T07:22:02;98552.13;;;7.49;75.08
67397;BME280;57728;50.448;18.824;2022-11-03T07:24:21;98559.44;;;7.54;74.96
67397;BME280;57728;50.448;18.824;2022-11-03T07:26:26;98548.78;;;7.59;74.98
67397;BME280;57728;50.448;18.824;2022-11-03T07:28:32;98550.97;;;7.62;74.62
67397;BME280;57728;50.448;18.824;2022-11-03T07:30:37;98532.13;;;7.57;74.52
67397;BME280;57728;50.448;18.824;2022-11-03T07:32:38;98551.66;;;7.74;74.44
67397;BME280;57728;50.448;18.824;2022-11-03T07:34:42;98545.03;;;7.82;74.46
67397;BME280;57728;50.448;18.824;2022-11-03T07:36:47;98546.53;;;7.95;74.47
67397;BME280;57728;50.448;18.824;2022-11-03T07:38:52;98541.34;;;8.10;74.07
67397;BME280;57728;50.448;18.824;2022-11-03T07:40:58;98541.56;;;8.30;73.47
67397;BME280;57728;50.448;18.824;2022-11-03T07:43:14;98539.28;;;8.71;72.80
67397;BME280;57728;50.448;18.824;2022-11-03T07:45:43;98533.03;;;9.35;70.58
67397;BME280;57728;50.448;18.824;2022-11-03T07:47:54;98531.44;;;9.92;68.82
67397;BME280;57728;50.448;18.824;2022-11-03T07:49:56;98531.09;;;10.51;67.05
67397;BME280;57728;50.448;18.824;2022-11-03T07:51:58;98521.13;;;11.07;65.29
67397;BME280;57728;50.448;18.824;2022-11-03T07:56:21;98521.63;;;12.15;61.50
67397;BME280;57728;50.448;18.824;2022-11-03T07:58:36;98528.19;;;12.82;60.29
67397;BME280;57728;50.448;18.824;2022-11-03T08:00:39;98522.66;;;13.56;58.04
67397;BME280;57728;50.448;18.824;2022-11-03T08:02:56;98519.19;;;13.98;56.15
67397;BME280;57728;50.448;18.824;2022-11-03T08:05:00;98511.84;;;14.42;54.78
67397;BME280;57728;50.448;18.824;2022-11-03T08:07:02;98518.84;;;14.81;53.12
67397;BME280;57728;50.448;18.824;2022-11-03T08:09:04;98515.41;;;15.26;51.90
67397;BME280;57728;50.448;18.824;2022-11-03T08:11:06;98514.00;;;15.70;50.66
67397;BME280;57728;50.448;18.824;2022-11-03T08:13:08;98517.78;;;16.11;49.26
67397;BME280;57728;50.448;18.824;2022-11-03T08:15:10;98507.59;;;16.30;47.69
67397;BME280;57728;50.448;18.824;2022-11-03T08:17:11;98511.41;;;16.43;47.19
67397;BME280;57728;50.448;18.824;2022-11-03T08:19:14;98510.06;;;16.54;46.89
67397;BME280;57728;50.448;18.824;2022-11-03T08:21:16;98506.84;;;16.52;45.65
67397;BME280;57728;50.448;18.824;2022-11-03T08:23:17;98494.72;;;16.58;45.79
67397;BME280;57728;50.448;18.824;2022-11-03T08:25:19;98507.22;;;16.82;45.45
67397;BME280;57728;50.448;18.824;2022-11-03T08:27:21;98507.56;;;16.80;44.75
67397;BME280;57728;50.448;18.824;2022-11-03T08:29:22;98501.22;;;16.71;44.75
67397;BME280;57728;50.448;18.824;2022-11-03T08:31:26;98496.75;;;16.75;45.00
67397;BME280;57728;50.448;18.824;2022-11-03T08:33:29;98491.97;;;17.03;44.51
67397;BME280;57728;50.448;18.824;2022-11-03T08:35:31;98488.34;;;17.39;42.93
67397;BME280;57728;50.448;18.824;2022-11-03T08:37:32;98483.03;;;17.73;42.53
67397;BME280;57728;50.448;18.824;2022-11-03T08:39:34;98476.84;;;17.90;41.77
67397;BME280;57728;50.448;18.824;2022-11-03T08:41:35;98471.28;;;18.13;41.12
67397;BME280;57728;50.448;18.824;2022-11-03T08:43:37;98472.72;;;18.19;40.06
67397;BME280;57728;50.448;18.824;2022-11-03T08:45:39;98474.19;;;18.16;40.57
67397;BME280;57728;50.448;18.824;2022-11-03T08:47:40;98470.00;;;18.19;40.29
67397;BME280;57728;50.448;18.824;2022-11-03T08:49:41;98473.69;;;18.23;40.06
67397;BME280;57728;50.448;18.824;2022-11-03T08:51:43;98468.09;;;18.37;39.90
67397;BME280;57728;50.448;18.824;2022-11-03T08:53:44;98468.25;;;18.66;39.28
67397;BME280;57728;50.448;18.824;2022-11-03T08:55:51;98467.13;;;18.76;38.35
67397;BME280;57728;50.448;18.824;2022-11-03T08:57:53;98469.19;;;18.70;38.52
67397;BME280;57728;50.448;18.824;2022-11-03T08:59:54;98460.66;;;18.89;38.21
67397;BME280;57728;50.448;18.824;2022-11-03T09:01:55;98456.97;;;18.94;37.50
67397;BME280;57728;50.448;18.824;2022-11-03T09:03:58;98461.28;;;19.04;38.15
67397;BME280;57728;50.448;18.824;2022-11-03T09:05:59;98458.25;;;19.05;37.31
67397;BME280;57728;50.448;18.824;2022-11-03T09:08:00;98452.50;;;19.36;37.42
67397;BME280;57728;50.448;18.824;2022-11-03T09:10:03;98454.91;;;19.38;37.06
67397;BME280;57728;50.448;18.824;2022-11-03T09:12:05;98452.13;;;19.17;36.68
67397;BME280;57728;50.448;18.824;2022-11-03T09:14:06;98443.44;;;19.15;37.23
67397;BME280;57728;50.448;18.824;2022-11-03T09:16:08;98453.56;;;19.14;36.84
67397;BME280;57728;50.448;18.824;2022-11-03T09:18:09;98453.25;;;19.07;36.77
67397;BME280;57728;50.448;18.824;2022-11-03T09:20:11;98450.88;;;18.80;37.02
67397;BME280;57728;50.448;18.824;2022-11-03T09:22:13;98448.03;;;18.59;37.83
67397;BME280;57728;50.448;18.824;2022-11-03T09:24:14;98446.25;;;18.63;37.96
67397;BME280;57728;50.448;18.824;2022-11-03T09:26:15;98450.06;;;18.79;37.80
67397;BME280;57728;50.448;18.824;2022-11-03T09:28:17;98447.56;;;19.30;38.02
67397;BME280;57728;50.448;18.824;2022-11-03T09:30:18;98447.78;;;19.84;36.32
67397;BME280;57728;50.448;18.824;2022-11-03T09:32:20;98444.09;;;20.09;35.38
67397;BME280;57728;50.448;18.824;2022-11-03T09:34:23;98447.28;;;20.11;35.49
67397;BME280;57728;50.448;18.824;2022-11-03T09:36:24;98441.81;;;20.32;35.36
67397;BME280;57728;50.448;18.824;2022-11-03T09:38:25;98437.13;;;20.54;34.53
67397;BME280;57728;50.448;18.824;2022-11-03T09:40:27;98433.97;;;20.97;34.60
67397;BME280;57728;50.448;18.824;2022-11-03T09:42:30;98434.94;;;21.26;33.43
67397;BME280;57728;50.448;18.824;2022-11-03T09:44:35;98430.53;;;21.46;33.06
67397;BME280;57728;50.448;18.824;2022-11-03T09:46:37;98425.13;;;21.61;32.47
67397;BME280;57728;50.448;18.824;2022-11-03T09:48:39;98419.06;;;21.80;32.61
67397;BME280;57728;50.448;18.824;2022-11-03T09:50:40;98416.63;;;22.03;31.99
67397;BME280;57728;50.448;18.824;2022-11-03T09:52:43;98410.94;;;21.96;31.29
67397;BME280;57728;50.448;18.824;2022-11-03T09:54:46;98405.09;;;22.10;32.30
67397;BME280;57728;50.448;18.824;2022-11-03T09:56:47;98408.78;;;22.42;31.04
67397;BME280;57728;50.448;18.824;2022-11-03T09:58:49;98403.13;;;22.51;31.39
67397;BME280;57728;50.448;18.824;2022-11-03T10:00:50;98401.81;;;22.88;31.01
67397;BME280;57728;50.448;18.824;2022-11-03T10:02:53;98392.06;;;23.07;30.39
67397;BME280;57728;50.448;18.824;2022-11-03T10:04:58;98396.69;;;23.19;29.60
67397;BME280;57728;50.448;18.824;2022-11-03T10:07:01;98389.84;;;22.97;29.11
67397;BME280;57728;50.448;18.824;2022-11-03T10:09:17;98384.75;;;22.83;29.49
67397;BME280;57728;50.448;18.824;2022-11-03T10:11:21;98379.78;;;22.73;29.78
67397;BME280;57728;50.448;18.824;2022-11-03T10:13:29;98376.47;;;22.95;29.75
67397;BME280;57728;50.448;18.824;2022-11-03T10:15:41;98371.06;;;23.15;29.55
67397;BME280;57728;50.448;18.824;2022-11-03T10:17:44;98363.84;;;23.26;28.85
67397;BME280;57728;50.448;18.824;2022-11-03T10:19:49;98365.69;;;23.53;28.65
67397;BME280;57728;50.448;18.824;2022-11-03T10:21:52;98346.34;;;23.66;27.79
67397;BME280;57728;50.448;18.824;2022-11-03T10:23:54;98358.25;;;23.89;26.64
67397;BME280;57728;50.448;18.824;2022-11-03T10:26:11;98351.31;;;23.95;25.93
67397;BME280;57728;50.448;18.824;2022-11-03T10:28:21;98353.16;;;23.72;25.57
67397;BME280;57728;50.448;18.824;2022-11-03T10:30:25;98350.19;;;23.29;25.82
67397;BME280;57728;50.448;18.824;2022-11-03T10:32:30;98350.56;;;23.28;25.09
67397;BME280;57728;50.448;18.824;2022-11-03T10:34:37;98351.84;;;22.99;25.10
67397;BME280;57728;50.448;18.824;2022-11-03T10:36:40;98345.88;;;22.97;24.62
67397;BME280;57728;50.448;18.824;2022-11-03T10:38:41;98339.66;;;22.84;24.71
67397;BME280;57728;50.448;18.824;2022-11-03T10:40:43;98338.66;;;22.76;24.37
67397;BME280;57728;50.448;18.824;2022-11-03T10:42:57;98335.31;;;22.83;24.42
67397;BME280;57728;50.448;18.824;2022-11-03T10:47:24;98319.00;;;23.57;24.18
67397;BME280;57728;50.448;18.824;2022-11-03T10:49:34;98327.91;;;24.05;24.04
67397;BME280;57728;50.448;18.824;2022-11-03T10:51:37;98321.88;;;24.38;23.22
67397;BME280;57728;50.448;18.824;2022-11-03T10:53:39;98314.25;;;24.28;22.85
67397;BME280;57728;50.448;18.824;2022-11-03T10:55:43;98302.19;;;24.36;23.68
67397;BME280;57728;50.448;18.824;2022-11-03T10:57:45;98309.94;;;24.73;23.05
67397;BME280;57728;50.448;18.824;2022-11-03T10:59:49;98296.44;;;25.14;22.36
67397;BME280;57728;50.448;18.824;2022-11-03T11:01:54;98293.84;;;24.98;21.95
67397;BME280;57728;50.448;18.824;2022-11-03T11:03:55;98294.31;;;24.80;21.83
67397;BME280;57728;50.448;18.824;2022-11-03T11:05:57;98288.38;;;24.78;22.42
67397;BME280;57728;50.448;18.824;2022-11-03T11:07:59;98277.19;;;24.94;21.28
67397;BME280;57728;50.448;18.824;2022-11-03T11:12:20;98267.13;;;25.58;20.87
67397;BME280;57728;50.448;18.824;2022-11-03T11:20:51;98255.72;;;25.90;20.66
67397;BME280;57728;50.448;18.824;2022-11-03T11:22:52;98254.84;;;25.83;20.93
67397;BME280;57728;50.448;18.824;2022-11-03T11:24:55;98252.72;;;25.69;20.65
67397;BME280;57728;50.448;18.824;2022-11-03T11:26:59;98250.53;;;25.25;20.96
67397;BME280;57728;50.448;18.824;2022-11-03T11:31:31;98250.53;;;24.75;21.96
67397;BME280;57728;50.448;18.824;2022-11-03T11:33:34;98241.97;;;24.34;22.25
67397;BME280;57728;50.448;18.824;2022-11-03T11:37:37;98240.22;;;24.26;22.97
67397;BME280;57728;50.448;18.824;2022-11-03T11:47:00;98214.69;;;22.94;23.76
67397;BME280;57728;50.448;18.824;2022-11-03T11:49:14;98215.78;;;22.57;24.48
67397;BME280;57728;50.448;18.824;2022-11-03T11:51:16;98211.00;;;22.23;25.46
67397;BME280;57728;50.448;18.824;2022-11-03T11:53:21;98211.91;;;21.99;25.66
67397;BME280;57728;50.448;18.824;2022-11-03T11:57:29;98204.69;;;22.06;25.46
67397;BME280;57728;50.448;18.824;2022-11-03T11:59:35;98199.63;;;22.08;26.08
67397;BME280;57728;50.448;18.824;2022-11-03T12:01:36;98186.78;;;22.12;26.32